Grapevine, CA Past Weather

Last 30 Days

 
High: 58ºf @12:13 AM    Low: 51ºf @4:13 AM     Approx. Precipitation / Rain Total: in.
Time (PDT)Temp. (ºf)Humidity (%)Dew Point (ºf)Barometer (inHG)Wind Speed (mph)Wind DirectionWind Gust (mph)1hr. Precip / Rain Total (in.)Snow Depth
5:13 AM534331.11-4.34s8.69--
4:13 AM514329.3-6.08ssw9.56--
3:13 AM533928.71-7.82ssw12.17--
12:13 AM583026.75-8.69s13.9--
High: 67ºf @4:13 PM    Low: 54ºf @4:13 AM     Approx. Precipitation / Rain Total: in.
Time (PDT)Temp. (ºf)Humidity (%)Dew Point (ºf)Barometer (inHG)Wind Speed (mph)Wind DirectionWind Gust (mph)1hr. Precip / Rain Total (in.)Snow Depth
11:13 PM582925.93-9.56s13.9--
10:13 PM582925.93-6.95s12.17--
7:13 PM612524.93-6.08s11.3--
5:13 PM672024.61-6.95ssw14.77--
4:13 PM671923.38-7.82s14.77--
3:13 PM672226.9-8.69ssw13.03--
12:13 PM652225.23-7.82ssw12.17--
11:13 AM642325.46-6.95ssw10.43--
9:13 AM612524.93-5.21s7.82--
7:13 AM542821.64-5.21ssw6.08--
4:13 AM542922.47-6.08ssw9.56--
2:13 AM552721.64-6.08ssw8.69--
1:13 AM552620.76-4.34s8.69--
12:13 AM552721.64-4.34s7.82--
High: 66ºf @3:13 PM    Low: 50ºf @4:13 AM     Approx. Precipitation / Rain Total: in.
Time (PDT)Temp. (ºf)Humidity (%)Dew Point (ºf)Barometer (inHG)Wind Speed (mph)Wind DirectionWind Gust (mph)1hr. Precip / Rain Total (in.)Snow Depth
11:13 PM552721.64-5.21s6.95--
4:13 PM642123.29-7.82ssw15.64--
3:13 PM662226.07-7.82s17.38--
2:13 PM642426.49-8.69ssw14.77--
12:13 PM633031.08-6.08s11.3--
10:13 AM592825.95-6.08ssw10.43--
9:13 AM583530.51-5.21ssw9.56--
8:13 AM554835.67-4.34sse6.08--
7:13 AM515334.48-5.21sse6.08--
4:13 AM505233.07-3.48s6.95--
3:13 AM505132.59-4.34s6.08--
2:13 AM514731.49-5.21s7.82--
1:13 AM524631.87-4.34s7.82--
High: 60ºf @5:13 PM    Low: 45ºf @5:13 AM     Approx. Precipitation / Rain Total: in.
Time (PDT)Temp. (ºf)Humidity (%)Dew Point (ºf)Barometer (inHG)Wind Speed (mph)Wind DirectionWind Gust (mph)1hr. Precip / Rain Total (in.)Snow Depth
11:13 PM524631.87-5.21s11.3--
10:13 PM534029.33-4.34s7.82--
9:13 PM534431.68-4.34s8.69--
8:13 PM534331.11-6.08s10.43--
6:13 PM593833.43-5.21s10.43--
5:13 PM603934.97-6.08s14.77--
4:13 PM603934.97-6.95s11.3--
2:13 PM593934.08-6.95ssw13.9--
11:13 AM564434.4-6.08ssw12.17--
10:13 AM554634.6-5.21s7.82--
9:13 AM535034.86-5.21sse6.08--
7:13 AM475732.57-4.34s6.08--
6:13 AM455831.12-5.21sse6.95--
5:13 AM455630.26-4.34s7.82--
4:13 AM465229.37-4.34s6.95--
3:13 AM475129.82-3.48s8.69--
2:13 AM465128.9-5.21s8.69--
1:13 AM484929.76-7.82ssw10.43--
High: 57ºf @4:13 PM    Low: 41ºf @5:13 AM     Approx. Precipitation / Rain Total: in.
Time (PDT)Temp. (ºf)Humidity (%)Dew Point (ºf)Barometer (inHG)Wind Speed (mph)Wind DirectionWind Gust (mph)1hr. Precip / Rain Total (in.)Snow Depth
11:13 PM494428.05-6.08ssw8.69--
9:13 PM494226.92-4.34s10.43--
7:13 PM523927.82-5.21s9.56--
6:13 PM553829.86-6.08s13.9--
4:13 PM573730.99-6.95s13.03--
12:13 PM544533.14-6.95sw11.3--
8:13 AM504831.09-4.34s7.82--
7:13 AM445528.88-4.34sse6.08--
5:13 AM415827.37-5.21s9.56--
4:13 AM425527.02-6.95ssw8.69--
3:13 AM445327.98-6.95s9.56--
2:13 AM454625.48-6.08s8.69--
1:13 AM455027.49-4.34s6.95--
High: 54ºf @4:13 PM    Low: 39ºf @7:13 AM     Approx. Precipitation / Rain Total: in.
Time (PDT)Temp. (ºf)Humidity (%)Dew Point (ºf)Barometer (inHG)Wind Speed (mph)Wind DirectionWind Gust (mph)1hr. Precip / Rain Total (in.)Snow Depth
9:13 PM464626.39-4.34s9.56--
8:13 PM464626.39-6.08s9.56--
7:13 PM494528.59-6.95ssw10.43--
6:13 PM524028.44-7.82ssw13.03--
4:13 PM543627.66-7.82s13.9--
3:13 PM543728.32-8.69ssw13.9--
2:13 PM533324.68-8.69ssw13.9--
12:13 PM514228.72-6.95s13.03--
11:13 AM504831.09-6.95ssw10.43--
10:13 AM504831.09-5.21s9.56--
9:13 AM466032.9-6.08s10.43--
7:13 AM397331.09-6.95ssw13.03--
4:13 AM406328.44-7.82ssw12.17--
3:13 AM406228.05-8.69ssw12.17--
12:13 AM415827.37-7.82ssw13.03--
High: 50ºf @3:13 PM    Low: 36ºf @7:13 AM     Approx. Precipitation / Rain Total: in.
Time (PDT)Temp. (ºf)Humidity (%)Dew Point (ºf)Barometer (inHG)Wind Speed (mph)Wind DirectionWind Gust (mph)1hr. Precip / Rain Total (in.)Snow Depth
11:13 PM415726.95-6.08ssw10.43--
10:13 PM416028.19-7.82s13.03--
9:13 PM425527.02-8.69s14.77--
8:13 PM436030.08-7.82s13.9--
7:13 PM455630.26-7.82ssw12.17--
5:13 PM485130.74-6.95s14.77--
3:13 PM505132.59-6.08sse13.03--
2:13 PM475833-11.3ssw15.64--
1:13 PM475933.42-6.08sw11.3--
12:13 PM456132.37-6.08ssw10.43--
11:13 AM445830.18-6.95s10.43--
9:13 AM426531.1-4.34s6.08--
7:13 AM368231.05-5.21ssw6.95--
6:13 AM375823.61-2.61s7.82--
5:13 AM395925.9-3.48sse8.69--
3:13 AM414219.69-5.21s7.82--
2:13 AM414119.12-5.21ssw6.08--
High: 65ºf @3:13 PM    Low: 46ºf @6:13 AM     Approx. Precipitation / Rain Total: in.
Time (PDT)Temp. (ºf)Humidity (%)Dew Point (ºf)Barometer (inHG)Wind Speed (mph)Wind DirectionWind Gust (mph)1hr. Precip / Rain Total (in.)Snow Depth
8:13 PM50188.19-6.08ssw11.3--
7:13 PM541811.47-3.48wsw13.03--
6:13 PM582017.17-6.08se18.25--
5:13 PM592624.17-11.3ssw19.12--
4:13 PM592624.17-9.56ssw16.51--
3:13 PM653335.19-7.82s18.25--
2:13 PM633434.19-7.82s14.77--
1:13 PM614036.5-7.82ssw14.77--
12:13 PM604035.61-7.82s13.03--
11:13 AM613734.54-6.08s13.03--
10:13 AM593934.08-6.08se14.77--
9:13 AM564937.11-6.08ssw12.17--
8:13 AM515434.95-8.69ssw11.3--
7:13 AM476033.84-7.82ssw10.43--
6:13 AM465932.48-8.69ssw12.17--
4:13 AM495232.15-7.82ssw10.43--
3:13 AM505132.59-8.69ssw12.17--
2:13 AM514932.52-8.69ssw13.03--
1:13 AM524430.77-8.69s12.17--
12:13 AM534431.68-6.95ssw11.3--
High: 62ºf @3:13 PM    Low: 48ºf @6:13 AM     Approx. Precipitation / Rain Total: in.
Time (PDT)Temp. (ºf)Humidity (%)Dew Point (ºf)Barometer (inHG)Wind Speed (mph)Wind DirectionWind Gust (mph)1hr. Precip / Rain Total (in.)Snow Depth
10:13 PM544130.84-6.95s10.43--
8:13 PM544130.84-6.08ssw10.43--
7:13 PM564333.82-8.69ssw11.3--
6:13 PM594135.33-6.95ssw13.03--
5:13 PM614137.13-6.08s13.03--
4:13 PM624339.25-6.95s14.77--
3:13 PM624741.54-6.95s14.77--
2:13 PM604940.78-7.82s13.9--
12:13 PM584938.95-7.82ssw12.17--
10:13 AM584838.42-6.08ssw8.69--
9:13 AM565037.63-5.21s10.43--
8:13 AM535738.18-6.95ssw9.56--
7:13 AM495734.44-6.08ssw7.82--
6:13 AM485833.94-5.21s8.69--
2:13 AM503624.11-6.95ssw9.56--
1:13 AM503825.4-4.34s10.43--
12:13 AM513524.32-6.95ssw10.43--
High: 58ºf @4:13 PM    Low: 47ºf @7:13 AM     Approx. Precipitation / Rain Total: in.
Time (PDT)Temp. (ºf)Humidity (%)Dew Point (ºf)Barometer (inHG)Wind Speed (mph)Wind DirectionWind Gust (mph)1hr. Precip / Rain Total (in.)Snow Depth
11:13 PM513322.92-6.95ssw12.17--
9:13 PM516338.85-6.08ssw8.69--
8:13 PM516941.19-6.08ssw8.69--
7:13 PM536240.33-6.95ssw9.56--
6:13 PM565138.13-6.08s12.17--
4:13 PM584536.78-6.95s13.9--
2:13 PM584536.78-7.82ssw12.17--
1:13 PM565037.63-9.56ssw14.77--
12:13 PM564836.59-6.08s9.56--
11:13 AM544633.69-7.82ssw10.43--
8:13 AM514530.41-5.21ssw7.82--
7:13 AM474023.94-6.08ssw8.69--
6:13 AM475230.3-6.08ssw10.43--
3:13 AM484024.84-7.82ssw11.3--
High: 56ºf @4:13 PM    Low: 39ºf @6:13 AM     Approx. Precipitation / Rain Total: in.
Time (PDT)Temp. (ºf)Humidity (%)Dew Point (ºf)Barometer (inHG)Wind Speed (mph)Wind DirectionWind Gust (mph)1hr. Precip / Rain Total (in.)Snow Depth
11:13 PM474225.11-7.82ssw11.3--
9:13 PM465229.37-8.69ssw10.43--
7:13 PM485130.74-7.82ssw11.3--
4:13 PM564233.24-6.95s13.03--
3:13 PM564032.02-6.95s13.9--
2:13 PM544633.69-7.82ssw14.77--
12:13 PM495533.54-13.03ssw17.38--
11:13 AM524631.87-8.69ssw11.3--
10:13 AM525134.44-6.95ssw9.56--
9:13 AM515736.31-5.21s9.56--
8:13 AM446131.43-6.08s10.43--
6:13 AM397130.41-9.56ssw14.77--
4:13 AM436933.54-9.56ssw13.03--
2:13 AM475330.77-9.56ssw13.9--
High: 58ºf @4:13 PM    Low: 44ºf @6:13 AM     Approx. Precipitation / Rain Total: in.
Time (PDT)Temp. (ºf)Humidity (%)Dew Point (ºf)Barometer (inHG)Wind Speed (mph)Wind DirectionWind Gust (mph)1hr. Precip / Rain Total (in.)Snow Depth
11:13 PM513926.92-9.56s12.17--
10:13 PM523726.54-8.69ssw12.17--
8:13 PM513926.92-7.82ssw9.56--
6:13 PM574133.54-5.21s13.03--
4:13 PM584235.04-7.82ssw13.03--
3:13 PM584637.34-7.82s15.64--
1:13 PM574234.14-7.82ssw12.17--
12:13 PM574133.54-6.08sw8.69--
11:13 AM554232.33-6.95ssw11.3--
10:13 AM543627.66-7.82ssw11.3--
9:13 AM533626.77-7.82ssw12.17--
6:13 AM445830.18-6.08s8.69--
4:13 AM446131.43-6.95s9.56--
1:13 AM453820.94-8.69ssw13.03--
12:13 AM473117.95-6.95ssw13.9--
High: 55ºf @3:13 PM    Low: 41ºf @5:13 AM     Approx. Precipitation / Rain Total: in.
Time (PDT)Temp. (ºf)Humidity (%)Dew Point (ºf)Barometer (inHG)Wind Speed (mph)Wind DirectionWind Gust (mph)1hr. Precip / Rain Total (in.)Snow Depth
11:13 PM482917.28-7.82ssw13.9--
10:13 PM493220.44-9.56ssw13.9--
8:13 PM483622.33-5.21ssw12.17--
5:13 PM543124.06-9.56s14.77--
3:13 PM553527.86-7.82s16.51--
1:13 PM524129.04-11.3ssw14.77--
12:13 PM504529.5-9.56ssw15.64--
11:13 AM495031.18-11.3ssw14.77--
10:13 AM504127.24-8.69ssw13.03--
9:13 AM494428.05-6.08s9.56--
8:13 AM454625.48-6.95ssw10.43--
7:13 AM424924.24-7.82s12.17--
6:13 AM425527.02-7.82s13.03--
5:13 AM416931.62-9.56s14.77--
4:13 AM426631.48-10.43ssw13.9--
2:13 AM475029.34-8.69s13.03--
High: 64ºf @4:13 PM    Low: 48ºf @7:13 AM     Approx. Precipitation / Rain Total: in.
Time (PDT)Temp. (ºf)Humidity (%)Dew Point (ºf)Barometer (inHG)Wind Speed (mph)Wind DirectionWind Gust (mph)1hr. Precip / Rain Total (in.)Snow Depth
9:13 PM535738.18-6.08ssw10.43--
8:13 PM546040.43-6.08ssw11.3--
6:13 PM604438.02-5.21s10.43--
5:13 PM624439.83-5.21s13.03--
4:13 PM643938.54-6.08s13.03--
3:13 PM614841.17-4.34s12.17--
2:13 PM604639.16-7.82ssw11.3--
1:13 PM604236.84-6.95ssw9.56--
12:13 PM633836.99-8.69ssw13.03--
11:13 AM594638.25-7.82ssw12.17--
10:13 AM594336.53-7.82ssw13.03--
8:13 AM553930.5-5.21ssw9.56--
7:13 AM486536.8-6.08s8.69--
5:13 AM495834.87-6.08s8.69--
3:13 AM486135.2-6.95ssw8.69--
2:13 AM513121.44-6.08ssw8.69--
1:13 AM505434.02-6.08ssw7.82--
12:13 AM505434.02-6.95ssw7.82--
High: 59ºf @12:13 PM    Low: 40ºf @5:13 AM     Approx. Precipitation / Rain Total: in.
Time (PDT)Temp. (ºf)Humidity (%)Dew Point (ºf)Barometer (inHG)Wind Speed (mph)Wind DirectionWind Gust (mph)1hr. Precip / Rain Total (in.)Snow Depth
11:13 PM505434.02-6.08ssw7.82--
8:13 PM524028.44-4.34s7.82--
7:13 PM534632.78-4.34s9.56--
5:13 PM565640.53-5.21s12.17--
4:13 PM565640.53-7.82ssw12.17--
2:13 PM576344.53-3.48sw13.9--
12:13 PM594034.71-5.21s8.69--
10:13 AM555438.66-5.21ssw7.82--
8:13 AM487339.76-4.34s7.82--
6:13 AM428738.42-6.08sse8.69--
5:13 AM409037.31-5.21s8.69--
4:13 AM408937.02-6.08s8.69--
2:13 AM437836.62-6.95s13.9--
1:13 AM447636.93-9.56ssw13.03--
12:13 AM448840.68-9.56s14.77--
High: 57ºf @1:13 PM    Low: 45ºf @5:13 AM     Approx. Precipitation / Rain Total: in.
Time (PDT)Temp. (ºf)Humidity (%)Dew Point (ºf)Barometer (inHG)Wind Speed (mph)Wind DirectionWind Gust (mph)1hr. Precip / Rain Total (in.)Snow Depth
11:13 PM477639.83-9.56ssw13.03--
10:13 PM487239.41-9.56ssw13.03--
9:13 PM487640.8-8.69s13.9--
7:13 PM497641.77-9.56ssw13.9--
4:13 PM547445.9-7.82s12.17--
3:13 PM537645.64-7.82ssw15.64--
2:13 PM556844.63-7.82ssw14.77--
1:13 PM576043.25-6.95s11.3--
10:13 AM546542.5-6.08ssw11.3--
9:13 AM546843.68-6.08ssw8.69--
6:13 AM459343.1-7.82sw9.56--
5:13 AM458841.66-7.82sw11.3--
4:13 AM468742.35-8.69ssw12.17--
3:13 AM477740.17-7.82ssw10.43--
1:13 AM479244.8-8.69ssw12.17--
12:13 AM479144.51-9.56ssw12.17--
High: 63ºf @10:13 AM    Low: 47ºf @2:13 AM     Approx. Precipitation / Rain Total: in.
Time (PDT)Temp. (ºf)Humidity (%)Dew Point (ºf)Barometer (inHG)Wind Speed (mph)Wind DirectionWind Gust (mph)1hr. Precip / Rain Total (in.)Snow Depth
11:13 PM497742.11-8.69ssw11.3--
9:13 PM543828.97-6.95ssw8.69--
8:13 PM545437.73-6.08ssw9.56--
6:13 PM573630.31-6.08sw8.69--
10:13 AM632930.24-5.21ssw8.69--
7:13 AM524631.87-4.34s7.82--
6:13 AM504428.95-5.21ssw7.82--
5:13 AM524129.04-3.48s7.82--
4:13 AM533727.43-6.08s7.82--
3:13 AM486235.61-7.82ssw11.3--
2:13 AM476435.46-7.82sw10.43--
12:13 AM495633.99-8.69ssw11.3--
High: 66ºf @1:13 PM    Low: 52ºf @11:13 PM     Approx. Precipitation / Rain Total: in.
Time (PDT)Temp. (ºf)Humidity (%)Dew Point (ºf)Barometer (inHG)Wind Speed (mph)Wind DirectionWind Gust (mph)1hr. Precip / Rain Total (in.)Snow Depth
11:13 PM524129.04-6.95s9.56--
9:13 PM583127.54-4.34s5.21--
7:13 PM602625.02-6.08ssw9.56--
6:13 PM632627.58-6.08ssw8.69--
5:13 PM642830.24-6.08ssw8.69--
4:13 PM642325.46-6.08sw9.56--
3:13 PM651921.74-6.95sw9.56--
2:13 PM661719.95-5.21sw8.69--
1:13 PM661821.29-6.08sw8.69--
12:13 PM662226.07-5.21sw7.82--
11:13 AM662428.17-4.34wsw6.95--
10:13 AM652225.23-4.34wsw6.95--
9:13 AM631717.51-5.21sw7.82--
8:13 AM611715.89-4.34s6.08--
7:13 AM561813.11-2.61se5.21--
6:13 AM541811.47-4.34ssw7.82--
4:13 AM56147.5-5.21ssw6.95--
3:13 AM57148.3-4.34s6.95--
2:13 AM571712.64-6.08ssw7.82--
1:13 AM572117.47-6.95ssw9.56--
12:13 AM562722.5-6.08s8.69--
High: 69ºf @12:13 PM    Low: 57ºf @11:13 PM     Approx. Precipitation / Rain Total: in.
Time (PDT)Temp. (ºf)Humidity (%)Dew Point (ºf)Barometer (inHG)Wind Speed (mph)Wind DirectionWind Gust (mph)1hr. Precip / Rain Total (in.)Snow Depth
11:13 PM572723.36-5.21s8.69--
10:13 PM602322.1-3.48s5.21--
9:13 PM602221.05-3.48s6.08--
7:13 PM621919.28-4.34s6.95--
6:13 PM651820.47-6.08ssw8.69--
2:13 PM681315.33-6.08ssw9.56--
1:13 PM681213.51-5.21sw7.82--
12:13 PM691925.03-3.48ssw7.82--
11:13 AM652528.32-5.21sw7.82--
10:13 AM642123.29-5.21ssw7.82--
9:13 AM622222.73-5.21sw7.82--
8:13 AM612221.89-4.34sw6.08--
High: 67ºf @3:13 PM    Low: 52ºf @1:13 AM     Approx. Precipitation / Rain Total: in.
Time (PDT)Temp. (ºf)Humidity (%)Dew Point (ºf)Barometer (inHG)Wind Speed (mph)Wind DirectionWind Gust (mph)1hr. Precip / Rain Total (in.)Snow Depth
11:13 PM582320.42-5.21ssw8.69--
7:13 PM631514.64-4.34sse6.08--
3:13 PM672327.98-4.34wsw9.56--
12:13 PM63129.61-15.64n23.46--
11:13 AM61128.05-17.38n22.59--
10:13 AM59126.48-16.51n22.59--
8:13 AM53121.78-18.25nnw22.59--
4:13 AM529-5.04-20.86-28.68--
3:13 AM539-4.28-19.12n26.07--
1:13 AM529-5.04-19.99n32.15--
High: 63ºf @4:13 PM    Low: 47ºf @7:13 AM     Approx. Precipitation / Rain Total: in.
Time (PDT)Temp. (ºf)Humidity (%)Dew Point (ºf)Barometer (inHG)Wind Speed (mph)Wind DirectionWind Gust (mph)1hr. Precip / Rain Total (in.)Snow Depth
11:13 PM529-5.04-21.72nnw28.68--
10:13 PM539-4.28-21.72nnw26.94--
9:13 PM5310-2.08-20.86n26.07--
8:13 PM5510-0.54-19.12nnw25.2--
5:13 PM6292.55-20.86nnw32.15--
4:13 PM63117.68-22.59nnw33.89--
2:13 PM62128.83-22.59nnw34.76--
1:13 PM60139.04-24.33n43.45--
12:13 PM56124.14-33.02n44.32--
11:13 AM55135.09-26.94n39.97--
10:13 AM52132.71-25.2n37.37--
9:13 AM51131.92-26.07n36.5--
8:13 AM4912-1.36-24.33n31.28--
7:13 AM4712-2.93-19.12nne29.55--
4:13 AM4810-5.93-21.72n29.55--
1:13 AM4910-5.16-20.86n28.68--
12:13 AM4911-3.18-20.86nnw29.55--
High: 62ºf @4:13 PM    Low: 41ºf @5:13 AM     Approx. Precipitation / Rain Total: in.
Time (PDT)Temp. (ºf)Humidity (%)Dew Point (ºf)Barometer (inHG)Wind Speed (mph)Wind DirectionWind Gust (mph)1hr. Precip / Rain Total (in.)Snow Depth
11:13 PM5011-2.4-19.99n24.33--
10:13 PM5210-2.85-18.25nnw24.33--
9:13 PM53121.78-16.51nnw22.59--
8:13 PM54145.91-15.64nnw19.99--
6:13 PM582017.17-12.17nnw17.38--
5:13 PM602221.05-12.17n18.25--
4:13 PM622121.63-12.17nnw19.12--
3:13 PM622222.73-14.77n22.59--
2:13 PM612322.94-11.3n25.2--
1:13 PM592220.22-16.51n26.07--
12:13 PM582623.32-19.12n24.33--
11:13 AM564333.82-13.03n17.38--
10:13 AM544834.76-6.95n9.56--
7:13 AM446432.62-4.34sse6.95--
6:13 AM426932.58-5.21sse7.82--
5:13 AM417433.36-5.21s9.56--
High: 60ºf @4:13 PM    Low: 48ºf @7:13 AM     Approx. Precipitation / Rain Total: in.
Time (PDT)Temp. (ºf)Humidity (%)Dew Point (ºf)Barometer (inHG)Wind Speed (mph)Wind DirectionWind Gust (mph)1hr. Precip / Rain Total (in.)Snow Depth
9:13 PM524531.32-7.82s9.56--
8:13 PM524430.77-6.95s11.3--
7:13 PM524430.77-6.95ssw10.43--
6:13 PM564132.64-6.95ssw12.17--
4:13 PM604136.23-6.95s15.64--
3:13 PM604438.02-6.95s13.9--
2:13 PM584938.95-7.82s13.03--
1:13 PM565238.62-9.56ssw13.03--
12:13 PM574636.43-6.95ssw13.03--
11:13 AM564836.59-7.82ssw12.17--
10:13 AM545337.26-6.95s11.3--
8:13 AM515434.95-6.95ssw9.56--
7:13 AM485633.06-5.21s6.95--
6:13 AM485532.61-6.08s8.69--
4:13 AM495734.44-6.95s8.69--
2:13 AM514932.52-5.21s7.82--
1:13 AM524933.44-5.21ssw7.82--
12:13 AM524631.87-4.34s6.95--
High: 66ºf @4:13 PM    Low: 50ºf @4:13 AM     Approx. Precipitation / Rain Total: in.
Time (PDT)Temp. (ºf)Humidity (%)Dew Point (ºf)Barometer (inHG)Wind Speed (mph)Wind DirectionWind Gust (mph)1hr. Precip / Rain Total (in.)Snow Depth
11:13 PM534331.11-5.21s7.82--
10:13 PM534934.36-4.34s7.82--
9:13 PM544935.28-6.95ssw8.69--
8:13 PM554835.67-6.95ssw8.69--
7:13 PM574938.03-4.34ssw8.69--
6:13 PM614740.62-4.34sse8.69--
4:13 PM663839.66-3.48sw9.56--
3:13 PM663336.07-5.21n7.82--
2:13 PM653637.39-5.21n13.03--
12:13 PM642022.13-14.77n24.33--
11:13 AM622121.63-15.64n21.72--
5:13 AM522517.28-6.08nnw7.82--
4:13 AM503422.75-3.48wnw6.08--
3:13 AM513524.32-4.34wsw6.08--
2:13 AM513121.44-6.08ssw6.08--
12:13 AM503724.76-1.74sse5.21--
High: 58ºf @1:13 PM    Low: 41ºf @12:13 AM     Approx. Precipitation / Rain Total: in.
Time (PDT)Temp. (ºf)Humidity (%)Dew Point (ºf)Barometer (inHG)Wind Speed (mph)Wind DirectionWind Gust (mph)1hr. Precip / Rain Total (in.)Snow Depth
11:13 PM503724.76-4.34sse6.08--
10:13 PM503120.57-3.48s7.82--
8:13 PM522517.28-6.95ssw7.82--
7:13 PM523827.19-6.08sw6.95--
6:13 PM553829.86-4.34ssw7.82--
3:13 PM564333.82-6.08ssw8.69--
2:13 PM564534.96-6.08ssw9.56--
1:13 PM584033.82-4.34sw14.77--
12:13 PM572925.07-4.34ne12.17--
11:13 AM542922.47-7.82nne13.03--
10:13 AM522920.74-8.69n12.17--
9:13 AM503019.8-8.69n11.3--
8:13 AM474526.77-7.82nnw9.56--
5:13 AM462814.74-9.56nnw11.3--
4:13 AM462512.17-4.34nnw6.08--
3:13 AM443417.46-2.61se3.48--
1:13 AM427333.98-2.61s4.34--
12:13 AM417333.02-3.48s4.34--
High: 42ºf @7:13 PM    Low: 42ºf @7:13 PM     Approx. Precipitation / Rain Total: in.
Time (PDT)Temp. (ºf)Humidity (%)Dew Point (ºf)Barometer (inHG)Wind Speed (mph)Wind DirectionWind Gust (mph)1hr. Precip / Rain Total (in.)Snow Depth
11:13 PM427434.32-2.61s5.21--
9:13 PM427935.97-3.48s5.21--
8:13 PM428036.29-3.48s6.08--
7:13 PM427935.97-4.34s8.69--
Past Weather Disclaimer Note regarding "Approx. Precipitation / Rain Total"

Currently

Fair 57°F
30.02in
Barometer
37%
Humidity
North 8.1mph
Wind
Fair

Past Weather Nearby

More Local Information

Bookmark and Share

Go Ad Free - Become a Member